Time;durP1;ratioP1;P1;durP2;ratioP2;P2;SDS_P1;SDS_P2;PMS_P1;PMS_P2;Temp;Humidity;BMP_temperature;BMP_pressure;BME280_temperature;BME280_humidity;BME280_pressure;Samples;Min_cycle;Max_cycle;Signal;HPM_P1;HPM_P2
2022/05/05 00:00:19;;;;;;;6.97;6.27;;;;;20.40;100812.00;;;;2078656;28;20214;-46
2022/05/05 00:01:19;;;;;;;5.97;5.20;;;;;20.40;100813.00;;;;2078689;28;20208;-46
2022/05/05 00:02:20;;;;;;;7.90;6.10;;;;;20.40;100764.00;;;;2076964;28;20284;-46
2022/05/05 00:03:20;;;;;;;7.90;6.33;;;;;20.40;100810.00;;;;2078688;28;20591;-46
2022/05/05 00:04:22;;;;;;;6.47;5.80;;;;;20.40;100811.00;;;;2078732;28;20206;-46
2022/05/05 00:05:22;;;;;;;7.05;5.65;;;;;20.40;100811.00;;;;2078071;28;20694;-46
2022/05/05 00:06:22;;;;;;;7.10;5.10;;;;;20.40;100806.00;;;;2077943;28;20214;-46
2022/05/05 00:07:23;;;;;;;7.07;5.50;;;;;20.40;100809.00;;;;2078281;28;22156;-46
2022/05/05 00:08:23;;;;;;;7.50;5.70;;;;;20.40;100811.00;;;;2078389;28;20228;-46
2022/05/05 00:09:23;;;;;;;8.70;6.30;;;;;20.40;100805.00;;;;2078604;28;20232;-46
2022/05/05 00:14:23;;;;;;;7.80;6.15;;;;;20.30;100814.00;;;;2077897;28;20221;-46
2022/05/05 00:15:24;;;;;;;5.38;4.80;;;;;20.60;100823.00;;;;2077195;28;20206;-45
2022/05/05 00:16:24;;;;;;;8.97;4.90;;;;;20.40;100814.00;;;;2077553;28;21719;-46
2022/05/05 00:17:26;;;;;;;5.17;4.23;;;;;20.20;100810.00;;;;2077392;28;20229;-46
2022/05/05 00:18:26;;;;;;;5.93;4.22;;;;;20.10;100814.00;;;;2076584;28;20268;-46
2022/05/05 00:19:27;;;;;;;9.03;4.43;;;;;20.00;100811.00;;;;2070409;28;20217;-47
2022/05/05 00:20:27;;;;;;;7.25;5.03;;;;;20.10;100812.00;;;;2070406;28;20222;-46
2022/05/05 00:21:28;;;;;;;4.57;3.97;;;;;20.10;100806.00;;;;2069748;28;20690;-46
2022/05/05 00:22:28;;;;;;;6.40;3.63;;;;;20.10;100802.00;;;;2069529;28;20210;-47
2022/05/05 00:23:28;;;;;;;6.00;4.00;;;;;20.10;100805.00;;;;2070412;28;20210;-46
2022/05/05 00:24:29;;;;;;;4.97;3.60;;;;;20.10;100804.00;;;;2070436;28;20244;-47
2022/05/05 00:25:29;;;;;;;4.73;3.30;;;;;20.10;100803.00;;;;2069626;28;20542;-46
2022/05/05 00:26:29;;;;;;;5.47;3.60;;;;;20.20;100807.00;;;;2075555;28;20625;-48
2022/05/05 00:27:31;;;;;;;5.87;4.33;;;;;20.20;100807.00;;;;2078347;28;20691;-47
2022/05/05 00:28:32;;;;;;;4.32;3.90;;;;;20.20;100805.00;;;;2078118;28;20308;-46
2022/05/05 00:29:32;;;;;;;4.13;3.73;;;;;20.20;100805.00;;;;2078263;28;20581;-46
2022/05/05 00:30:32;;;;;;;5.33;4.00;;;;;20.20;100805.00;;;;2078528;28;20571;-46
2022/05/05 00:31:33;;;;;;;4.77;3.57;;;;;20.20;100794.00;;;;2078559;28;20229;-47
2022/05/05 00:32:33;;;;;;;5.80;4.37;;;;;20.20;100801.00;;;;2075420;28;20210;-46
2022/05/05 00:33:33;;;;;;;4.93;4.43;;;;;20.00;100794.00;;;;2074531;28;20276;-46
2022/05/05 00:34:34;;;;;;;5.30;4.00;;;;;20.20;100803.00;;;;2078179;28;20229;-46
2022/05/05 00:35:34;;;;;;;5.90;4.00;;;;;20.20;100797.00;;;;2077448;28;20225;-46
2022/05/05 00:36:34;;;;;;;6.20;4.10;;;;;20.20;100805.00;;;;2078003;28;20272;-46
2022/05/05 00:37:35;;;;;;;5.50;3.93;;;;;20.20;100798.00;;;;2078137;28;20218;-46
2022/05/05 00:38:35;;;;;;;7.80;4.60;;;;;20.20;100792.00;;;;2078328;28;20234;-46
2022/05/05 00:39:36;;;;;;;7.27;4.30;;;;;20.20;100794.00;;;;2078342;28;20225;-46
2022/05/05 00:40:36;;;;;;;6.00;3.73;;;;;20.20;100798.00;;;;2078228;28;20245;-47
2022/05/05 00:41:38;;;;;;;5.87;4.53;;;;;20.20;100739.00;;;;2078401;28;20229;-46
2022/05/05 00:42:39;;;;;;;5.60;4.65;;;;;20.20;100795.00;;;;2069969;28;20246;-52
2022/05/05 00:43:39;;;;;;;5.00;4.10;;;;;20.20;100789.00;;;;2070233;28;20233;-47
2022/05/05 00:44:39;;;;;;;5.30;4.10;;;;;20.20;100790.00;;;;2076218;28;20225;-49
2022/05/05 00:45:40;;;;;;;5.30;4.40;;;;;20.30;100793.00;;;;2076415;28;20795;-46
2022/05/05 00:46:40;;;;;;;9.40;4.00;;;;;20.30;100791.00;;;;2078439;28;20590;-49
2022/05/05 00:47:40;;;;;;;5.00;3.80;;;;;20.30;100795.00;;;;2067083;28;20635;-46
2022/05/05 00:48:42;;;;;;;5.07;3.90;;;;;20.30;100797.00;;;;2061590;28;21167;-47
2022/05/05 00:49:46;;;;;;;4.60;4.00;;;;;20.30;100797.00;;;;2077217;28;20625;-47
2022/05/05 00:50:47;;;;;;;6.72;3.60;;;;;20.30;100789.00;;;;2078406;28;20216;-46
2022/05/05 00:51:47;;;;;;;5.13;3.53;;;;;20.30;100796.00;;;;2078168;28;20309;-46
2022/05/05 00:52:47;;;;;;;6.77;4.40;;;;;20.30;100796.00;;;;2078394;28;20275;-47
2022/05/05 00:53:48;;;;;;;4.27;3.87;;;;;20.30;100800.00;;;;2078258;28;20264;-46
2022/05/05 00:54:48;;;;;;;6.10;4.30;;;;;20.30;100805.00;;;;2078371;28;20275;-46
2022/05/05 00:56:02;;;;;;;4.93;3.97;;;;;20.30;100795.00;;;;2077446;28;20249;-46
2022/05/05 00:57:03;;;;;;;5.55;4.15;;;;;20.30;100800.00;;;;2077445;28;20662;-47
2022/05/05 00:58:03;;;;;;;5.80;4.13;;;;;20.30;100796.00;;;;2077790;28;20213;-46
2022/05/05 00:59:04;;;;;;;3.87;3.47;;;;;20.30;100785.00;;;;2078512;28;20232;-46
2022/05/05 01:00:05;;;;;;;5.25;4.30;;;;;20.30;100798.00;;;;2077723;28;20999;-46
2022/05/05 01:01:06;;;;;;;4.77;4.27;;;;;20.30;100799.00;;;;2077559;28;20237;-47
2022/05/05 01:02:06;;;;;;;4.50;3.97;;;;;20.30;100798.00;;;;2077618;28;20448;-47
2022/05/05 01:03:08;;;;;;;5.57;4.20;;;;;20.30;100797.00;;;;2076969;28;20328;-47
2022/05/05 01:04:08;;;;;;;3.75;3.45;;;;;20.30;100797.00;;;;2078353;28;20218;-46
2022/05/05 01:05:08;;;;;;;4.70;3.80;;;;;20.30;100798.00;;;;2076952;28;20257;-47
2022/05/05 01:06:09;;;;;;;4.20;3.50;;;;;20.30;100797.00;;;;2068219;28;20214;-46
2022/05/05 01:07:09;;;;;;;4.70;4.00;;;;;20.30;100791.00;;;;2069310;28;20210;-47
2022/05/05 01:08:10;;;;;;;4.10;3.80;;;;;20.20;100796.00;;;;2077989;28;20245;-46
2022/05/05 01:09:10;;;;;;;5.40;3.70;;;;;20.30;100799.00;;;;2079820;28;20219;-46
2022/05/05 01:10:10;;;;;;;5.73;3.20;;;;;20.20;100797.00;;;;2079780;28;20217;-46
2022/05/05 01:11:11;;;;;;;4.50;4.10;;;;;20.30;100798.00;;;;2079685;28;20220;-47
2022/05/05 01:12:11;;;;;;;4.20;3.80;;;;;20.30;100797.00;;;;2079890;28;20237;-47
2022/05/05 01:13:12;;;;;;;4.57;3.80;;;;;20.30;100790.00;;;;2071717;28;20222;-46
2022/05/05 01:14:15;;;;;;;4.27;3.87;;;;;20.30;100779.00;;;;2071512;28;20384;-47
2022/05/05 01:15:15;;;;;;;4.78;3.67;;;;;20.30;100798.00;;;;2068497;28;20360;-47
2022/05/05 01:16:16;;;;;;;4.13;3.43;;;;;20.30;100797.00;;;;2070149;28;20206;-47
2022/05/05 01:17:16;;;;;;;4.57;3.73;;;;;20.30;100792.00;;;;2078964;28;20213;-46
2022/05/05 01:18:16;;;;;;;4.37;3.97;;;;;20.30;100793.00;;;;2071032;28;20218;-46
2022/05/05 01:19:17;;;;;;;4.50;4.00;;;;;20.20;100795.00;;;;2079063;28;20220;-46
2022/05/05 01:20:18;;;;;;;4.30;3.90;;;;;20.30;100801.00;;;;2079683;28;20213;-46
2022/05/05 01:21:19;;;;;;;5.18;3.45;;;;;20.30;100798.00;;;;2079592;28;20217;-46
2022/05/05 01:22:19;;;;;;;3.80;3.47;;;;;20.30;100797.00;;;;2079794;28;20213;-47
2022/05/05 01:23:20;;;;;;;3.43;3.13;;;;;20.30;100795.00;;;;2079683;28;20456;-48
2022/05/05 01:28:10;;;;;;;5.13;3.60;;;;;20.30;100796.00;;;;2079598;28;20232;-47
2022/05/05 01:28:21;;;;;;;4.60;3.97;;;;;20.30;100796.00;;;;2079359;28;20855;-46
2022/05/05 01:29:22;;;;;;;4.80;3.90;;;;;20.30;100784.00;;;;2076855;28;20214;-47
2022/05/05 01:30:23;;;;;;;6.90;3.63;;;;;20.30;100798.00;;;;2070807;28;20257;-46
2022/05/05 01:31:23;;;;;;;5.60;4.17;;;;;20.30;100799.00;;;;2078926;28;20676;-46
2022/05/05 01:32:29;;;;;;;6.20;3.50;;;;;20.30;100800.00;;;;2079702;28;20562;-46
2022/05/05 01:33:33;;;;;;;5.38;3.25;;;;;20.30;100800.00;;;;2078781;28;20553;-46
2022/05/05 01:34:34;;;;;;;4.07;3.38;;;;;20.30;100800.00;;;;2069978;28;20219;-46
2022/05/05 01:35:34;;;;;;;5.10;3.50;;;;;20.30;100797.00;;;;2073351;28;20690;-46
2022/05/05 01:36:35;;;;;;;4.30;3.73;;;;;20.30;100797.00;;;;2078832;28;20214;-45
2022/05/05 01:37:35;;;;;;;5.50;4.07;;;;;20.30;100800.00;;;;2071202;28;20238;-46
2022/05/05 01:38:36;;;;;;;4.10;3.60;;;;;20.30;100802.00;;;;2071506;28;20309;-46
2022/05/05 01:39:37;;;;;;;4.28;3.75;;;;;20.30;100802.00;;;;2071472;28;20309;-46
2022/05/05 01:40:37;;;;;;;3.90;3.40;;;;;20.30;100805.00;;;;2078958;28;20224;-46
2022/05/05 01:41:37;;;;;;;3.50;3.20;;;;;20.30;100802.00;;;;2078781;28;20791;-46
2022/05/05 01:42:38;;;;;;;5.90;3.87;;;;;20.30;100804.00;;;;2078271;28;20228;-46
2022/05/05 01:43:40;;;;;;;4.00;3.60;;;;;20.30;100806.00;;;;2079189;28;20217;-46
2022/05/05 01:44:40;;;;;;;4.03;3.63;;;;;20.30;100800.00;;;;2075494;28;20222;-46
2022/05/05 01:45:41;;;;;;;4.10;3.40;;;;;20.30;100803.00;;;;2075381;28;20225;-46
2022/05/05 01:46:41;;;;;;;4.47;4.07;;;;;20.20;100809.00;;;;2079331;28;20244;-46
2022/05/05 01:47:41;;;;;;;4.20;3.70;;;;;20.30;100808.00;;;;2079436;28;20252;-46
2022/05/05 01:48:42;;;;;;;4.30;3.43;;;;;20.30;100799.00;;;;2079508;28;20222;-46
2022/05/05 01:49:45;;;;;;;4.47;3.63;;;;;20.30;100808.00;;;;2078429;28;20213;-46
2022/05/05 01:50:48;;;;;;;3.53;3.05;;;;;20.30;100814.00;;;;2079586;28;20225;-46
2022/05/05 01:51:48;;;;;;;3.38;3.08;;;;;20.20;100814.00;;;;2078800;28;20209;-46
2022/05/05 01:52:49;;;;;;;4.37;3.47;;;;;20.30;100817.00;;;;2079494;28;20582;-46
2022/05/05 01:53:49;;;;;;;4.67;4.20;;;;;20.20;100812.00;;;;2079053;28;20755;-46
2022/05/05 01:54:49;;;;;;;4.03;3.60;;;;;20.30;100808.00;;;;2078273;28;20562;-52
2022/05/05 01:55:50;;;;;;;3.93;3.43;;;;;20.30;100806.00;;;;2071066;28;20210;-48
2022/05/05 01:56:50;;;;;;;5.03;3.23;;;;;20.30;100816.00;;;;2070094;28;20711;-46
2022/05/05 01:57:51;;;;;;;4.10;3.53;;;;;20.30;100817.00;;;;2070620;28;20233;-46
2022/05/05 01:58:51;;;;;;;3.90;3.50;;;;;20.30;100805.00;;;;2071385;28;20210;-46
2022/05/05 01:59:52;;;;;;;4.20;3.80;;;;;20.30;100808.00;;;;2069851;28;20210;-47
2022/05/05 02:00:52;;;;;;;4.10;3.67;;;;;20.30;100806.00;;;;2071204;28;20217;-46
2022/05/05 02:01:52;;;;;;;3.93;3.47;;;;;20.30;100807.00;;;;2071506;28;20240;-46
2022/05/05 02:02:52;;;;;;;3.63;3.33;;;;;20.30;100811.00;;;;2071166;28;20214;-46
2022/05/05 02:03:53;;;;;;;4.03;3.73;;;;;20.30;100807.00;;;;2071054;28;20217;-46
2022/05/05 02:04:53;;;;;;;4.30;3.70;;;;;20.20;100809.00;;;;2071200;28;20237;-46
2022/05/05 02:05:53;;;;;;;3.80;3.50;;;;;20.30;100808.00;;;;2069520;28;20206;-46
2022/05/05 02:06:54;;;;;;;3.93;3.30;;;;;20.30;100808.00;;;;2070879;28;20594;-46
2022/05/05 02:07:54;;;;;;;5.27;3.63;;;;;20.30;100810.00;;;;2071288;28;20577;-47
2022/05/05 02:08:57;;;;;;;3.80;3.50;;;;;20.30;100811.00;;;;2071267;28;20206;-45
2022/05/05 02:10:01;;;;;;;10.98;4.10;;;;;20.30;100817.00;;;;2079299;28;20237;-47
2022/05/05 02:11:02;;;;;;;5.10;3.63;;;;;20.30;100810.00;;;;2073335;28;20760;-47
2022/05/05 02:12:03;;;;;;;4.93;3.60;;;;;20.30;100821.00;;;;2074459;28;20272;-47
2022/05/05 02:13:04;;;;;;;4.20;3.45;;;;;20.20;100817.00;;;;2077925;28;20257;-46
2022/05/05 02:14:04;;;;;;;5.57;3.40;;;;;20.30;100817.00;;;;2079194;28;20684;-46
2022/05/05 02:15:08;;;;;;;6.37;3.33;;;;;20.30;100812.00;;;;2079133;28;20787;-47
2022/05/05 02:16:08;;;;;;;6.57;3.47;;;;;20.30;100817.00;;;;2078475;28;20459;-46
2022/05/05 02:17:09;;;;;;;4.20;3.90;;;;;20.30;100817.00;;;;2079061;28;20236;-47
2022/05/05 02:18:11;;;;;;;4.88;3.20;;;;;20.30;100823.00;;;;2079273;28;20619;-47
2022/05/05 02:19:11;;;;;;;6.20;3.30;;;;;20.30;100825.00;;;;2078885;28;20660;-46
2022/05/05 02:20:11;;;;;;;5.43;3.73;;;;;20.30;100817.00;;;;2075497;28;20202;-46
2022/05/05 02:21:12;;;;;;;5.10;3.30;;;;;20.30;100813.00;;;;2070892;28;20222;-47
2022/05/05 02:22:12;;;;;;;3.83;3.20;;;;;20.30;100820.00;;;;2071104;28;20633;-46
2022/05/05 02:23:13;;;;;;;4.97;3.30;;;;;20.30;100816.00;;;;2070953;28;20650;-47
2022/05/05 02:24:13;;;;;;;6.20;3.43;;;;;20.30;100819.00;;;;2070846;28;20247;-47
2022/05/05 02:25:13;;;;;;;4.00;3.30;;;;;20.30;100818.00;;;;2071060;28;20616;-46
2022/05/05 02:26:14;;;;;;;3.60;3.30;;;;;20.30;100820.00;;;;2070317;28;20635;-47
2022/05/05 02:27:14;;;;;;;3.90;3.50;;;;;20.30;100823.00;;;;2070946;28;20621;-46
2022/05/05 02:28:14;;;;;;;3.90;3.37;;;;;20.30;100822.00;;;;2071037;28;20729;-46
2022/05/05 02:29:15;;;;;;;5.53;3.43;;;;;20.30;100825.00;;;;2070847;28;20663;-47
2022/05/05 02:30:19;;;;;;;5.10;3.77;;;;;20.30;100818.00;;;;2070904;28;20272;-46
2022/05/05 02:31:21;;;;;;;6.22;3.20;;;;;20.30;100821.00;;;;2071200;28;20218;-46
2022/05/05 02:32:21;;;;;;;4.47;3.72;;;;;20.30;100827.00;;;;2071100;28;20364;-46
2022/05/05 02:33:21;;;;;;;4.87;3.60;;;;;20.30;100826.00;;;;2069814;28;20254;-47
2022/05/05 02:34:22;;;;;;;3.80;2.97;;;;;20.30;100823.00;;;;2071096;28;20214;-46
2022/05/05 02:35:22;;;;;;;4.20;3.40;;;;;20.30;100820.00;;;;2070043;28;20210;-46
2022/05/05 02:39:00;;;;;;;4.10;3.70;;;;;20.30;100831.00;;;;2079342;28;20843;-46
2022/05/05 02:40:00;;;;;;;3.87;3.50;;;;;20.30;100819.00;;;;2079161;28;20209;-46
2022/05/05 02:41:01;;;;;;;3.83;3.23;;;;;20.30;100818.00;;;;2079114;28;20217;-47
2022/05/05 02:42:01;;;;;;;4.30;3.30;;;;;20.30;100816.00;;;;2079250;28;20209;-46
2022/05/05 02:43:01;;;;;;;3.80;3.40;;;;;20.20;100824.00;;;;2079083;28;20240;-46
2022/05/05 02:44:03;;;;;;;4.13;3.40;;;;;20.30;100820.00;;;;2078040;28;20216;-46
2022/05/05 02:45:04;;;;;;;3.65;3.30;;;;;20.30;100820.00;;;;2070242;28;21034;-47
2022/05/05 02:46:04;;;;;;;3.20;2.90;;;;;20.30;100817.00;;;;2077682;28;20213;-47
2022/05/05 02:47:05;;;;;;;4.00;3.23;;;;;20.30;100824.00;;;;2078783;28;20223;-46
2022/05/05 02:48:06;;;;;;;3.87;3.33;;;;;20.30;100824.00;;;;2078811;28;20305;-46
2022/05/05 02:49:06;;;;;;;5.47;3.60;;;;;20.30;100823.00;;;;2070871;28;20272;-47
2022/05/05 02:50:07;;;;;;;4.40;3.40;;;;;20.20;100822.00;;;;2070835;28;20465;-47
2022/05/05 02:51:07;;;;;;;5.40;3.73;;;;;20.30;100825.00;;;;2070837;28;20244;-46
2022/05/05 02:52:08;;;;;;;3.67;3.37;;;;;20.20;100821.00;;;;2070965;28;20294;-47
2022/05/05 02:55:46;;;;;;;4.25;3.22;;;;;20.20;100819.00;;;;2078873;28;20248;-47
2022/05/05 02:56:46;;;;;;;3.80;3.40;;;;;20.20;100817.00;;;;2070886;28;20214;-47
2022/05/05 02:57:47;;;;;;;4.33;3.20;;;;;20.20;100825.00;;;;2070627;28;20254;-46
2022/05/05 02:58:47;;;;;;;3.40;3.10;;;;;20.30;100825.00;;;;2074652;28;20209;-46
2022/05/05 02:59:47;;;;;;;3.47;3.17;;;;;20.20;100820.00;;;;2071001;28;20334;-47
2022/05/05 03:00:48;;;;;;;3.83;2.90;;;;;20.20;100825.00;;;;2065158;28;20225;-46
2022/05/05 03:01:48;;;;;;;4.70;3.10;;;;;20.20;100825.00;;;;2070804;28;20225;-47
2022/05/05 03:02:48;;;;;;;3.40;3.00;;;;;20.20;100822.00;;;;2070858;28;20245;-47
2022/05/05 03:03:49;;;;;;;3.97;3.33;;;;;20.20;100825.00;;;;2073952;28;20225;-47
2022/05/05 03:04:49;;;;;;;3.60;3.30;;;;;20.20;100826.00;;;;2078897;28;20236;-46
2022/05/05 03:05:50;;;;;;;3.23;2.93;;;;;20.20;100823.00;;;;2078080;28;20301;-46
2022/05/05 03:06:50;;;;;;;3.77;3.47;;;;;20.20;100824.00;;;;2077687;28;20320;-46
2022/05/05 03:07:50;;;;;;;3.67;3.37;;;;;20.20;100827.00;;;;2078872;28;20222;-46
2022/05/05 03:08:51;;;;;;;3.70;3.30;;;;;20.20;100830.00;;;;2071214;28;20210;-47
2022/05/05 03:09:51;;;;;;;3.97;3.13;;;;;20.20;100826.00;;;;2070604;28;20301;-46
2022/05/05 03:10:51;;;;;;;3.80;3.10;;;;;20.20;100829.00;;;;2076438;28;20231;-47
2022/05/05 03:11:52;;;;;;;3.20;2.90;;;;;20.20;100821.00;;;;2079023;28;20214;-46
2022/05/05 03:12:52;;;;;;;3.30;2.93;;;;;20.20;100819.00;;;;2078993;28;20274;-47
2022/05/05 03:13:52;;;;;;;3.93;3.57;;;;;20.20;100824.00;;;;2078659;28;20229;-47
2022/05/05 03:14:53;;;;;;;4.20;3.20;;;;;20.20;100824.00;;;;2078910;28;20217;-47
2022/05/05 03:15:54;;;;;;;3.90;3.50;;;;;20.20;100828.00;;;;2069667;28;20229;-47
2022/05/05 03:16:54;;;;;;;3.60;3.30;;;;;20.20;100827.00;;;;2070566;28;20218;-47
2022/05/05 03:17:54;;;;;;;3.47;3.13;;;;;20.20;100824.00;;;;2070651;28;20221;-46
2022/05/05 03:18:55;;;;;;;3.83;3.40;;;;;20.20;100824.00;;;;2069497;28;20289;-46
2022/05/05 03:19:55;;;;;;;3.80;3.50;;;;;20.20;100828.00;;;;2070620;28;20217;-47
2022/05/05 03:20:55;;;;;;;4.10;3.30;;;;;20.20;100820.00;;;;2077511;28;20217;-46
2022/05/05 03:21:56;;;;;;;3.87;3.33;;;;;20.20;100824.00;;;;2078673;28;20221;-46
2022/05/05 03:22:56;;;;;;;3.63;2.63;;;;;20.20;100827.00;;;;2078505;28;20253;-46
2022/05/05 03:23:56;;;;;;;3.50;3.07;;;;;20.20;100828.00;;;;2078110;28;20219;-47
2022/05/05 03:24:57;;;;;;;3.10;2.90;;;;;20.20;100830.00;;;;2078232;28;20210;-46
2022/05/05 03:25:58;;;;;;;3.70;3.40;;;;;20.20;100837.00;;;;2078030;28;20214;-46
2022/05/05 03:27:00;;;;;;;3.50;3.20;;;;;20.20;100824.00;;;;2073739;28;20293;-46
2022/05/05 03:28:00;;;;;;;3.90;3.55;;;;;20.20;100833.00;;;;2070641;28;20468;-46
2022/05/05 03:29:01;;;;;;;3.63;3.20;;;;;20.20;100831.00;;;;2070607;28;20674;-46
2022/05/05 03:30:01;;;;;;;4.37;3.33;;;;;20.20;100826.00;;;;2070541;28;20226;-47
2022/05/05 03:31:01;;;;;;;2.87;2.67;;;;;20.20;100823.00;;;;2070199;28;20242;-47
2022/05/05 03:32:02;;;;;;;4.40;3.60;;;;;20.20;100828.00;;;;2072586;28;20774;-46
2022/05/05 03:33:02;;;;;;;4.30;3.50;;;;;20.20;100834.00;;;;2078675;28;20217;-47
2022/05/05 03:34:04;;;;;;;3.67;3.30;;;;;20.20;100780.00;;;;2078089;28;20212;-47
2022/05/05 03:35:05;;;;;;;4.30;3.50;;;;;20.20;100835.00;;;;2073714;28;20218;-51
2022/05/05 03:36:05;;;;;;;4.83;3.37;;;;;20.20;100830.00;;;;2069577;28;20221;-47
2022/05/05 03:37:05;;;;;;;4.00;2.93;;;;;20.20;100839.00;;;;2073265;28;20451;-46
2022/05/05 03:38:06;;;;;;;3.50;3.20;;;;;20.20;100835.00;;;;2078466;28;20217;-46
2022/05/05 03:39:06;;;;;;;4.47;3.27;;;;;20.20;100838.00;;;;2069660;28;20244;-47
2022/05/05 03:40:07;;;;;;;4.80;2.90;;;;;20.20;100834.00;;;;2070711;28;20214;-46
2022/05/05 03:41:07;;;;;;;4.17;3.03;;;;;20.20;100845.00;;;;2070562;28;20214;-47
2022/05/05 03:42:08;;;;;;;3.57;3.27;;;;;20.20;100844.00;;;;2070647;28;20457;-47
2022/05/05 03:43:08;;;;;;;3.40;3.10;;;;;20.20;100844.00;;;;2071206;28;20244;-46
2022/05/05 03:44:08;;;;;;;3.20;2.90;;;;;20.20;100848.00;;;;2078645;28;20213;-47
2022/05/05 03:45:09;;;;;;;3.57;3.27;;;;;20.20;100836.00;;;;2078671;28;20213;-47
2022/05/05 03:46:09;;;;;;;3.43;3.13;;;;;20.20;100844.00;;;;2078176;28;20586;-47
2022/05/05 03:47:09;;;;;;;4.60;3.63;;;;;20.20;100838.00;;;;2078335;28;20359;-46
2022/05/05 03:48:10;;;;;;;3.37;3.07;;;;;20.20;100839.00;;;;2078732;28;20271;-46
2022/05/05 03:49:10;;;;;;;3.43;3.13;;;;;20.20;100847.00;;;;2077974;28;20222;-46
2022/05/05 03:50:11;;;;;;;5.20;4.10;;;;;20.20;100849.00;;;;2071214;28;20308;-46
2022/05/05 03:51:11;;;;;;;4.30;3.10;;;;;20.20;100837.00;;;;2070170;28;20292;-46
2022/05/05 03:52:12;;;;;;;4.97;3.53;;;;;20.20;100846.00;;;;2074574;28;20255;-46
2022/05/05 03:53:12;;;;;;;4.20;3.80;;;;;20.20;100856.00;;;;2072246;28;20271;-46
2022/05/05 03:54:13;;;;;;;3.80;3.30;;;;;20.20;100844.00;;;;2070489;28;20276;-46
2022/05/05 03:55:13;;;;;;;4.20;3.47;;;;;20.20;100837.00;;;;2069881;28;20263;-46
2022/05/05 03:56:13;;;;;;;3.97;3.67;;;;;20.20;100849.00;;;;2073694;28;20224;-47
2022/05/05 03:57:13;;;;;;;4.33;3.60;;;;;20.20;100847.00;;;;2077789;28;20214;-47
2022/05/05 03:58:14;;;;;;;4.20;3.80;;;;;20.20;100858.00;;;;2077962;28;20303;-47
2022/05/05 03:59:14;;;;;;;4.13;3.67;;;;;20.20;100855.00;;;;2078724;28;20205;-46
2022/05/05 04:00:18;;;;;;;3.73;3.43;;;;;20.20;100847.00;;;;2078631;28;20661;-47
2022/05/05 04:01:18;;;;;;;4.18;3.88;;;;;20.20;100848.00;;;;2078532;28;20709;-47
2022/05/05 04:02:19;;;;;;;4.33;3.93;;;;;20.20;100856.00;;;;2078650;28;20218;-46
2022/05/05 04:03:31;;;;;;;4.30;3.90;;;;;20.10;100851.00;;;;2076967;28;20225;-46
2022/05/05 04:04:31;;;;;;;5.63;3.65;;;;;20.10;100854.00;;;;2077994;28;20218;-47
2022/05/05 04:05:31;;;;;;;9.53;3.73;;;;;20.20;100857.00;;;;2077315;28;20237;-46
2022/05/05 04:06:32;;;;;;;4.67;3.53;;;;;20.20;100858.00;;;;2078425;28;20221;-46
2022/05/05 04:07:33;;;;;;;5.50;3.13;;;;;20.20;100853.00;;;;2078492;28;20455;-46
2022/05/05 04:08:33;;;;;;;7.23;3.33;;;;;20.20;100868.00;;;;2078320;28;20209;-46
2022/05/05 04:09:34;;;;;;;3.10;2.80;;;;;20.20;100851.00;;;;2078398;28;20232;-46
2022/05/05 04:10:34;;;;;;;3.00;2.63;;;;;20.20;100862.00;;;;2078597;28;20229;-45
2022/05/05 04:11:34;;;;;;;3.80;3.40;;;;;20.20;100856.00;;;;2078560;28;20355;-45
2022/05/05 04:12:35;;;;;;;3.63;3.20;;;;;20.20;100859.00;;;;2078643;28;20213;-46
2022/05/05 04:13:36;;;;;;;4.43;3.40;;;;;20.20;100859.00;;;;2078198;28;20278;-46
2022/05/05 04:14:36;;;;;;;3.28;2.95;;;;;20.20;100858.00;;;;2078384;28;20221;-47
2022/05/05 04:15:36;;;;;;;4.03;3.13;;;;;20.20;100857.00;;;;2077912;28;20586;-46
2022/05/05 04:16:37;;;;;;;5.87;3.20;;;;;20.20;100857.00;;;;2078420;28;20772;-46
2022/05/05 04:17:37;;;;;;;4.70;3.77;;;;;20.20;100858.00;;;;2078523;28;20224;-47
2022/05/05 04:18:38;;;;;;;5.57;3.33;;;;;20.30;100864.00;;;;2078624;28;20220;-46
2022/05/05 04:19:39;;;;;;;5.50;3.85;;;;;20.30;100863.00;;;;2078360;28;20221;-46
2022/05/05 04:20:41;;;;;;;6.57;4.00;;;;;20.20;100865.00;;;;2078363;28;20752;-47
2022/05/05 04:21:42;;;;;;;4.82;4.32;;;;;20.30;100863.00;;;;2073007;28;20214;-46
2022/05/05 04:22:42;;;;;;;4.80;4.27;;;;;20.20;100873.00;;;;2070215;28;20218;-48
2022/05/05 04:23:43;;;;;;;4.57;3.90;;;;;20.20;100869.00;;;;2070510;28;20218;-47
2022/05/05 04:24:43;;;;;;;4.03;3.63;;;;;20.20;100871.00;;;;2068610;28;20218;-47
2022/05/05 04:25:44;;;;;;;4.87;3.60;;;;;20.20;100866.00;;;;2069588;28;20244;-47
2022/05/05 04:26:44;;;;;;;4.20;3.80;;;;;20.20;100872.00;;;;2070370;28;20252;-47
2022/05/05 04:27:45;;;;;;;4.90;4.50;;;;;20.20;100877.00;;;;2069667;28;20229;-47
2022/05/05 04:28:47;;;;;;;5.78;4.10;;;;;20.20;100873.00;;;;2069708;28;20218;-47
2022/05/05 04:29:48;;;;;;;8.00;3.90;;;;;20.10;100876.00;;;;2069787;28;20238;-47
2022/05/05 04:30:48;;;;;;;6.73;3.67;;;;;20.10;100882.00;;;;2070158;28;20218;-46
2022/05/05 04:31:49;;;;;;;5.23;3.23;;;;;20.10;100878.00;;;;2069551;28;20217;-46
2022/05/05 04:32:49;;;;;;;9.67;3.83;;;;;20.20;100884.00;;;;2069690;28;20214;-46
2022/05/05 04:33:49;;;;;;;9.70;3.90;;;;;20.20;100875.00;;;;2070157;28;20222;-46
2022/05/05 04:34:49;;;;;;;10.03;3.67;;;;;20.20;100881.00;;;;2069199;28;20218;-46
2022/05/05 04:35:50;;;;;;;4.43;3.33;;;;;20.20;100874.00;;;;2068824;28;20234;-46
2022/05/05 04:36:50;;;;;;;5.13;3.60;;;;;20.20;100879.00;;;;2069428;28;20292;-46
2022/05/05 04:37:50;;;;;;;4.07;3.67;;;;;20.20;100878.00;;;;2069628;28;20224;-46
2022/05/05 04:38:51;;;;;;;6.77;3.83;;;;;20.20;100881.00;;;;2076692;28;20214;-46
2022/05/05 04:39:51;;;;;;;6.30;3.60;;;;;20.20;100888.00;;;;2069789;28;20297;-46
2022/05/05 04:40:51;;;;;;;6.37;3.77;;;;;20.20;100874.00;;;;2070444;28;20210;-46
2022/05/05 04:41:52;;;;;;;4.07;3.30;;;;;20.20;100888.00;;;;2070292;28;20724;-46
2022/05/05 04:42:52;;;;;;;4.90;3.50;;;;;20.20;100875.00;;;;2071033;28;20499;-46
2022/05/05 04:43:52;;;;;;;3.40;3.10;;;;;20.20;100881.00;;;;2071056;28;20587;-46
2022/05/05 04:44:53;;;;;;;3.70;3.33;;;;;20.20;100864.00;;;;2071001;28;20633;-47
2022/05/05 04:45:53;;;;;;;4.57;2.93;;;;;20.20;100880.00;;;;2069980;28;20215;-46
2022/05/05 04:46:54;;;;;;;6.60;3.53;;;;;20.20;100881.00;;;;2070453;28;20215;-46
2022/05/05 04:47:55;;;;;;;4.73;3.60;;;;;20.20;100884.00;;;;2071158;28;20630;-46
2022/05/05 04:48:56;;;;;;;5.25;3.70;;;;;20.20;100883.00;;;;2071642;28;20269;-47
2022/05/05 04:49:57;;;;;;;6.13;3.58;;;;;20.20;100884.00;;;;2071428;28;20284;-46
2022/05/05 04:50:57;;;;;;;3.73;3.43;;;;;20.20;100877.00;;;;2071247;28;20267;-46
2022/05/05 04:51:57;;;;;;;4.03;3.40;;;;;20.20;100884.00;;;;2070251;28;20694;-47
2022/05/05 04:52:57;;;;;;;3.87;3.33;;;;;20.20;100879.00;;;;2071177;28;20263;-46
2022/05/05 04:53:58;;;;;;;3.43;3.13;;;;;20.20;100880.00;;;;2071756;28;20218;-46
2022/05/05 04:54:58;;;;;;;3.73;2.93;;;;;20.20;100878.00;;;;2071819;28;20292;-46
2022/05/05 04:55:59;;;;;;;3.30;3.00;;;;;20.20;100881.00;;;;2071201;28;20217;-46
2022/05/05 04:57:00;;;;;;;3.90;3.50;;;;;20.10;100882.00;;;;2071843;28;21079;-47
2022/05/05 04:58:00;;;;;;;4.53;3.67;;;;;20.20;100884.00;;;;2071089;28;20260;-46
2022/05/05 04:59:01;;;;;;;4.63;3.47;;;;;20.20;100880.00;;;;2070744;28;20221;-46
2022/05/05 05:00:01;;;;;;;4.33;3.13;;;;;20.20;100875.00;;;;2071789;28;20252;-46
2022/05/05 05:01:02;;;;;;;7.00;4.00;;;;;20.20;100883.00;;;;2072673;28;20300;-47
2022/05/05 05:02:03;;;;;;;3.67;3.25;;;;;20.20;100882.00;;;;2080003;28;20217;-46
2022/05/05 05:03:03;;;;;;;5.60;3.67;;;;;20.20;100887.00;;;;2079977;28;20451;-46
2022/05/05 05:04:04;;;;;;;4.13;3.57;;;;;20.20;100888.00;;;;2079598;28;20243;-46
2022/05/05 05:05:04;;;;;;;4.10;3.07;;;;;20.20;100888.00;;;;2075324;28;20598;-47
2022/05/05 05:06:06;;;;;;;4.20;3.80;;;;;20.20;100892.00;;;;2070922;28;20221;-46
2022/05/05 05:07:06;;;;;;;5.53;3.63;;;;;20.20;100890.00;;;;2069934;28;20221;-46
2022/05/05 05:08:07;;;;;;;4.20;3.40;;;;;20.20;100896.00;;;;2072259;28;20233;-46
2022/05/05 05:09:08;;;;;;;4.20;3.80;;;;;20.20;100898.00;;;;2071646;28;20222;-46
2022/05/05 05:10:09;;;;;;;4.00;3.50;;;;;20.20;100901.00;;;;2071546;28;20218;-47
2022/05/05 05:11:09;;;;;;;4.57;3.50;;;;;20.20;100912.00;;;;2071560;28;20269;-46
2022/05/05 05:12:09;;;;;;;3.80;3.13;;;;;20.20;100905.00;;;;2078839;28;20573;-46